Time;durP1;ratioP1;P1;durP2;ratioP2;P2;SDS_P1;SDS_P2;PMS_P1;PMS_P2;Temp;Humidity;BMP_temperature;BMP_pressure;BME280_temperature;BME280_humidity;BME280_pressure;Samples;Min_cycle;Max_cycle;Signal;HPM_P1;HPM_P2
2023/12/31 00:00:52;;;;;;;3.20;1.90;;;;;;;4.02;100.00;147210.47;5022101;28;20246;-55
2023/12/31 00:03:19;;;;;;;2.20;1.93;;;;;;;4.07;100.00;147222.88;5024718;28;20234;-53
2023/12/31 00:05:46;;;;;;;3.60;1.70;;;;;;;4.30;100.00;147278.66;5022420;28;20789;-53
2023/12/31 00:08:13;;;;;;;2.83;1.97;;;;;;;4.35;100.00;147289.78;5025033;28;20238;-55
2023/12/31 00:10:40;;;;;;;3.37;2.40;;;;;;;4.28;100.00;147273.69;5022379;28;20257;-57
2023/12/31 00:13:07;;;;;;;2.90;1.70;;;;;;;4.21;100.00;147256.31;5022812;28;20227;-53
2023/12/31 00:15:34;;;;;;;2.83;1.40;;;;;;;4.18;100.00;147250.16;5022600;28;20299;-54
2023/12/31 00:18:02;;;;;;;2.53;1.47;;;;;;;4.20;100.00;147255.09;5024135;28;20220;-53
2023/12/31 00:20:28;;;;;;;2.97;1.50;;;;;;;4.14;100.00;147241.44;5023049;28;20912;-56
2023/12/31 00:22:56;;;;;;;3.22;1.65;;;;;;;4.04;100.00;147215.41;5021133;28;20429;-53
2023/12/31 00:25:22;;;;;;;3.00;1.30;;;;;;;3.95;100.00;147195.59;5024242;28;20224;-54
2023/12/31 00:27:49;;;;;;;4.63;1.50;;;;;;;4.05;100.00;147217.91;5021562;28;20231;-55
2023/12/31 00:30:15;;;;;;;3.60;1.43;;;;;;;3.97;100.00;147199.28;5006821;28;20243;-54
2023/12/31 00:32:42;;;;;;;2.90;1.43;;;;;;;3.99;100.00;147205.50;5005034;28;20234;-55
2023/12/31 00:35:10;;;;;;;2.20;1.63;;;;;;;4.14;100.00;147240.22;5023209;28;20240;-57
2023/12/31 00:37:37;;;;;;;2.30;1.60;;;;;;;4.18;100.00;147248.88;5022206;28;20227;-57
2023/12/31 00:40:04;;;;;;;1.60;1.13;;;;;;;4.30;100.00;147278.66;5006171;28;20244;-56
2023/12/31 00:42:30;;;;;;;2.97;1.63;;;;;;;4.54;100.00;147335.69;5011932;28;20234;-53
2023/12/31 00:44:57;;;;;;;3.80;1.40;;;;;;;4.95;100.00;147433.69;5028229;28;20226;-57
2023/12/31 00:47:24;;;;;;;5.10;1.40;;;;;;;5.15;100.00;147482.06;5030207;28;20222;-56
2023/12/31 00:49:51;;;;;;;4.23;1.60;;;;;;;5.47;100.00;147559.00;5010579;28;20207;-56
2023/12/31 00:52:18;;;;;;;1.90;1.00;;;;;;;5.65;100.00;147601.19;5012805;28;20239;-56
2023/12/31 00:54:50;;;;;;;2.90;1.20;;;;;;;5.68;100.00;147609.88;5007043;28;20391;-57
2023/12/31 00:57:17;;;;;;;1.53;0.90;;;;;;;5.91;100.00;147664.50;5029413;28;20219;-55
2023/12/31 00:59:43;;;;;;;2.17;1.33;;;;;;;5.92;100.00;147666.97;5010811;28;20285;-56
2023/12/31 01:02:10;;;;;;;1.93;1.03;;;;;;;5.77;100.00;147631.00;5029640;28;20266;-56
2023/12/31 01:04:37;;;;;;;1.30;0.90;;;;;;;6.13;99.45;147717.91;5009738;28;20242;-54
2023/12/31 01:07:04;;;;;;;1.37;0.93;;;;;;;6.10;100.00;147710.47;5029563;28;20242;-57
2023/12/31 01:09:32;;;;;;;2.63;1.30;;;;;;;6.17;100.00;147726.63;5031201;28;20266;-57
2023/12/31 01:11:58;;;;;;;1.63;1.20;;;;;;;6.10;100.00;147709.25;5014351;28;20243;-57
2023/12/31 01:14:25;;;;;;;1.47;0.97;;;;;;;6.32;100.00;147763.88;5029184;28;20254;-57
2023/12/31 01:16:52;;;;;;;1.03;0.90;;;;;;;6.45;98.78;147793.63;5027372;28;20226;-57
2023/12/31 01:19:18;;;;;;;2.23;1.13;;;;;;;6.62;97.13;147835.88;5029148;28;20265;-53
2023/12/31 01:21:45;;;;;;;2.13;0.93;;;;;;;6.75;96.53;147866.97;5009418;28;20231;-56
2023/12/31 01:24:11;;;;;;;1.80;1.00;;;;;;;6.88;95.04;147896.78;5012410;28;20235;-57
2023/12/31 01:26:39;;;;;;;1.40;0.83;;;;;;;7.15;91.51;147961.34;5009632;28;20216;-56
2023/12/31 01:29:07;;;;;;;0.83;0.70;;;;;;;7.36;88.25;148012.31;5011500;28;20246;-57
2023/12/31 01:31:34;;;;;;;1.07;0.70;;;;;;;7.39;89.93;148019.78;5027233;28;20227;-57
2023/12/31 01:34:02;;;;;;;1.00;0.77;;;;;;;7.31;91.24;148001.09;5030422;28;20290;-56
2023/12/31 01:36:28;;;;;;;3.23;0.93;;;;;;;7.22;91.59;147978.75;5011526;28;20223;-56
2023/12/31 01:38:55;;;;;;;3.17;2.20;;;;;;;7.14;92.61;147958.84;5010195;28;20235;-54
2023/12/31 01:41:21;;;;;;;1.83;1.40;;;;;;;7.14;91.87;147958.84;5012483;28;20240;-55
2023/12/31 01:43:50;;;;;;;3.57;2.20;;;;;;;7.11;92.78;147952.66;5026808;28;20830;-57
2023/12/31 01:46:27;;;;;;;6.93;3.03;;;;;;;7.00;93.17;147925.31;5021164;28;20229;-56
2023/12/31 01:48:53;;;;;;;3.43;1.90;;;;;;;6.87;94.13;147895.50;5027746;28;20689;-55
2023/12/31 01:51:20;;;;;;;3.77;1.70;;;;;;;6.80;93.95;147878.13;5028347;28;20235;-53
2023/12/31 01:53:47;;;;;;;2.03;1.47;;;;;;;6.71;95.41;147855.75;5006838;28;20223;-53
2023/12/31 01:56:15;;;;;;;3.77;1.47;;;;;;;6.62;97.43;147835.88;5009255;28;20247;-57
2023/12/31 01:58:43;;;;;;;2.47;1.33;;;;;;;6.50;98.47;147807.31;5023174;28;20214;-53
2023/12/31 02:01:11;;;;;;;1.40;0.90;;;;;;;6.42;99.14;147787.44;5008337;28;20222;-53
2023/12/31 02:03:37;;;;;;;4.13;1.10;;;;;;;6.38;100.00;147776.25;5006332;28;20212;-56
2023/12/31 02:06:05;;;;;;;5.17;2.80;;;;;;;6.36;100.00;147772.56;5027105;28;20758;-54
2023/12/31 02:08:31;;;;;;;3.73;2.90;;;;;;;6.32;100.00;147762.63;5009512;28;20227;-55
2023/12/31 02:10:58;;;;;;;3.37;2.40;;;;;;;6.31;100.00;147761.41;5024357;28;20232;-54
2023/12/31 02:13:25;;;;;;;4.77;2.17;;;;;;;6.44;100.00;147791.16;5008658;28;20211;-57
2023/12/31 02:15:52;;;;;;;2.73;2.10;;;;;;;6.49;100.00;147804.84;5023151;28;20219;-55
2023/12/31 02:18:21;;;;;;;1.20;0.90;;;;;;;6.80;96.43;147878.13;5009155;28;20235;-56
2023/12/31 02:20:47;;;;;;;0.90;0.70;;;;;;;7.16;91.10;147963.81;5021494;28;20227;-57
2023/12/31 02:23:14;;;;;;;0.90;0.70;;;;;;;7.64;85.67;148079.38;5008229;28;20982;-55
2023/12/31 02:25:44;;;;;;;0.97;0.60;;;;;;;8.03;81.46;148173.88;5024291;28;20219;-53
2023/12/31 02:28:14;;;;;;;0.40;0.33;;;;;;;8.33;78.25;148246.00;5009088;28;20228;-53
2023/12/31 02:30:41;;;;;;;2.23;0.70;;;;;;;8.67;75.22;148328.09;5024215;28;20221;-54
2023/12/31 02:33:08;;;;;;;2.40;0.53;;;;;;;8.83;73.07;148365.44;5008826;28;20255;-57
2023/12/31 02:35:34;;;;;;;0.60;0.50;;;;;;;8.89;73.68;148380.34;5006145;28;20592;-57
2023/12/31 02:38:01;;;;;;;0.80;0.40;;;;;;;9.10;71.59;148431.34;5008387;28;20282;-55
2023/12/31 02:40:28;;;;;;;2.10;1.10;;;;;;;9.13;70.55;148438.81;5008259;28;20256;-57
2023/12/31 02:42:54;;;;;;;0.30;0.30;;;;;;;9.27;70.97;148472.44;5023601;28;20675;-57
2023/12/31 02:45:22;;;;;;;2.00;0.40;;;;;;;9.45;69.80;148515.97;5008244;28;20218;-56
2023/12/31 02:47:49;;;;;;;0.80;0.50;;;;;;;9.53;70.10;148533.41;5006781;28;20282;-54
2023/12/31 02:50:15;;;;;;;0.30;0.27;;;;;;;9.59;68.36;148549.56;5008374;28;20233;-54
2023/12/31 02:52:42;;;;;;;2.40;0.30;;;;;;;9.67;67.71;148568.25;5023573;28;20598;-57
2023/12/31 02:55:08;;;;;;;0.77;0.33;;;;;;;9.72;67.37;148580.69;5007231;28;20238;-56
2023/12/31 02:57:35;;;;;;;0.40;0.30;;;;;;;9.62;69.31;148555.81;5005954;28;20220;-57
2023/12/31 03:00:02;;;;;;;3.03;0.40;;;;;;;9.58;69.55;148547.06;5024397;28;20229;-57
2023/12/31 03:02:30;;;;;;;0.27;0.20;;;;;;;9.66;67.89;148565.75;5008266;28;20304;-54
2023/12/31 03:04:56;;;;;;;0.90;0.40;;;;;;;10.00;67.33;148647.94;5023160;28;20229;-54
2023/12/31 03:07:23;;;;;;;0.57;0.40;;;;;;;10.14;67.45;148680.25;5007821;28;20239;-54
2023/12/31 03:09:49;;;;;;;0.67;0.30;;;;;;;10.02;68.61;148652.91;5004934;28;20240;-57
2023/12/31 03:12:16;;;;;;;0.60;0.40;;;;;;;10.09;67.75;148669.06;5008131;28;20305;-54
2023/12/31 03:14:43;;;;;;;1.93;1.00;;;;;;;9.94;71.28;148631.72;5004708;28;20229;-57
2023/12/31 03:17:10;;;;;;;3.13;1.50;;;;;;;9.15;75.41;148442.56;5007859;28;20641;-53
2023/12/31 03:19:40;;;;;;;2.23;1.40;;;;;;;8.80;77.77;148357.97;5023157;28;20226;-55
2023/12/31 03:22:09;;;;;;;2.67;1.60;;;;;;;8.52;81.00;148292.06;5001741;28;20698;-54
2023/12/31 03:24:36;;;;;;;3.30;1.53;;;;;;;8.12;83.25;148196.25;5005214;28;20224;-55
2023/12/31 03:27:03;;;;;;;2.33;1.40;;;;;;;8.08;83.63;148186.31;5024326;28;20231;-54
2023/12/31 03:29:29;;;;;;;4.47;2.30;;;;;;;7.76;85.39;148108.00;5005732;28;20226;-56
2023/12/31 03:31:56;;;;;;;3.30;2.13;;;;;;;7.42;87.78;148027.19;5022565;28;20242;-57
2023/12/31 03:34:24;;;;;;;3.77;2.00;;;;;;;7.28;90.26;147992.44;5017283;28;20286;-57
2023/12/31 03:36:51;;;;;;;3.60;2.00;;;;;;;6.87;93.43;147895.50;5022425;28;20224;-56
2023/12/31 03:39:18;;;;;;;5.00;2.30;;;;;;;6.62;95.48;147834.66;5001839;28;20603;-56
2023/12/31 03:41:45;;;;;;;4.63;2.50;;;;;;;6.37;96.01;147773.78;5005027;28;20219;-53
2023/12/31 03:44:12;;;;;;;4.17;2.43;;;;;;;6.18;97.33;147730.31;5023888;28;20843;-53
2023/12/31 03:46:38;;;;;;;3.70;2.33;;;;;;;6.03;99.29;147693.06;5022166;28;20228;-56
2023/12/31 03:49:05;;;;;;;6.37;2.40;;;;;;;5.88;99.80;147657.03;5017887;28;20568;-53
2023/12/31 03:51:31;;;;;;;3.80;2.50;;;;;;;5.82;100.00;147642.16;5025159;28;20231;-55
2023/12/31 03:53:59;;;;;;;3.23;2.27;;;;;;;5.80;100.00;147637.19;5004689;28;20891;-55
2023/12/31 03:56:27;;;;;;;4.33;2.60;;;;;;;5.82;100.00;147642.16;5023815;28;20302;-54
2023/12/31 03:58:53;;;;;;;4.77;2.90;;;;;;;5.84;100.00;147648.31;5022675;28;20216;-56
2023/12/31 04:01:20;;;;;;;3.70;2.50;;;;;;;5.85;100.00;147649.59;5007140;28;20707;-53
2023/12/31 04:03:47;;;;;;;4.13;2.50;;;;;;;5.87;100.00;147654.56;5004551;28;20222;-56
2023/12/31 04:06:13;;;;;;;5.13;2.73;;;;;;;5.85;100.00;147650.81;5016065;28;20232;-57
2023/12/31 04:08:40;;;;;;;5.40;2.57;;;;;;;5.78;100.00;147633.47;5004795;28;20247;-56
2023/12/31 04:11:08;;;;;;;5.63;2.90;;;;;;;5.73;100.00;147622.28;5024300;28;20251;-55
2023/12/31 04:13:33;;;;;;;5.40;2.50;;;;;;;5.66;100.00;147603.69;5003113;28;20211;-57
2023/12/31 04:16:00;;;;;;;3.63;2.57;;;;;;;5.60;100.00;147590.00;5024514;28;20718;-57
2023/12/31 04:18:27;;;;;;;5.27;2.90;;;;;;;5.53;100.00;147573.88;5007114;28;20224;-56
2023/12/31 04:20:53;;;;;;;3.97;2.70;;;;;;;5.45;100.00;147554.03;5022153;28;20228;-53
2023/12/31 04:23:20;;;;;;;6.13;2.43;;;;;;;5.34;100.00;147527.94;5006679;28;20235;-57
2023/12/31 04:25:46;;;;;;;4.73;2.57;;;;;;;5.28;100.00;147513.09;5004232;28;20699;-56
2023/12/31 04:28:14;;;;;;;10.23;2.43;;;;;;;5.22;100.00;147499.41;5007021;28;20854;-54
2023/12/31 04:33:07;;;;;;;3.70;2.57;;;;;;;5.10;100.00;147470.91;4971932;23;20233;-52
2023/12/31 04:35:34;;;;;;;3.80;2.40;;;;;;;4.97;100.00;147439.84;4961418;28;20230;-55
2023/12/31 04:38:01;;;;;;;4.33;2.40;;;;;;;4.92;100.00;147427.44;4963611;28;20296;-52
2023/12/31 04:40:27;;;;;;;4.33;2.70;;;;;;;4.84;100.00;147408.88;4962892;28;20616;-51
2023/12/31 04:42:54;;;;;;;3.50;2.40;;;;;;;4.76;100.00;147389.00;4959260;28;20238;-54
2023/12/31 04:45:22;;;;;;;3.87;2.50;;;;;;;4.65;100.00;147362.97;4957380;28;20226;-54
2023/12/31 04:47:48;;;;;;;6.23;2.33;;;;;;;4.57;100.00;147343.13;4958874;28;20230;-52
2023/12/31 04:50:15;;;;;;;3.60;2.10;;;;;;;4.50;100.00;147325.78;4964096;28;20241;-52
2023/12/31 04:52:42;;;;;;;5.47;2.77;;;;;;;4.39;100.00;147300.97;4960096;28;20225;-52
2023/12/31 04:55:09;;;;;;;3.93;2.20;;;;;;;4.34;100.00;147287.31;4960265;28;20225;-52
2023/12/31 04:57:36;;;;;;;4.90;2.30;;;;;;;4.34;100.00;147287.31;4944510;28;20229;-52
2023/12/31 05:00:04;;;;;;;4.20;2.63;;;;;;;4.28;100.00;147274.91;4947084;28;20233;-52
2023/12/31 05:02:32;;;;;;;4.80;2.40;;;;;;;4.26;100.00;147268.72;4963758;28;20229;-52
2023/12/31 05:04:59;;;;;;;4.33;2.47;;;;;;;4.25;100.00;147267.47;4951717;28;20243;-51
2023/12/31 05:07:25;;;;;;;7.13;2.93;;;;;;;4.26;100.00;147268.72;4946249;28;20221;-54
2023/12/31 05:09:52;;;;;;;3.80;2.30;;;;;;;4.24;100.00;147264.97;4959307;28;20228;-52
2023/12/31 05:12:18;;;;;;;5.00;2.70;;;;;;;4.28;100.00;147274.91;4963280;28;20223;-54
2023/12/31 05:14:45;;;;;;;4.57;2.30;;;;;;;4.37;100.00;147296.00;4959563;28;20237;-55
2023/12/31 05:17:12;;;;;;;6.37;2.60;;;;;;;4.36;100.00;147292.25;4961027;28;20705;-53
2023/12/31 05:19:40;;;;;;;4.87;2.60;;;;;;;4.46;100.00;147317.06;4951974;28;20234;-54
2023/12/31 05:22:10;;;;;;;4.30;2.63;;;;;;;4.52;100.00;147331.94;4961627;28;20245;-54
2023/12/31 05:24:37;;;;;;;3.80;2.40;;;;;;;4.68;100.00;147369.16;4954443;28;20290;-52
2023/12/31 05:27:04;;;;;;;4.17;2.17;;;;;;;4.79;100.00;147395.19;4963000;28;20628;-52
2023/12/31 05:29:30;;;;;;;4.00;2.50;;;;;;;4.84;100.00;147408.88;4965602;28;20654;-53
2023/12/31 05:31:57;;;;;;;4.93;2.30;;;;;;;4.83;100.00;147405.13;4961643;28;20244;-54
2023/12/31 05:34:23;;;;;;;3.10;2.30;;;;;;;4.86;100.00;147412.56;4968195;28;20240;-54
2023/12/31 05:36:51;;;;;;;3.13;2.30;;;;;;;4.87;100.00;147415.03;4966370;28;20221;-54
2023/12/31 05:39:19;;;;;;;4.00;1.97;;;;;;;4.95;100.00;147433.69;4967510;28;20234;-52
2023/12/31 05:41:45;;;;;;;5.10;2.43;;;;;;;5.07;100.00;147462.19;4963723;28;20226;-52
2023/12/31 05:44:12;;;;;;;3.60;2.30;;;;;;;5.00;100.00;147447.31;4967083;28;20241;-51
2023/12/31 05:46:38;;;;;;;5.83;2.40;;;;;;;4.96;100.00;147437.38;4957076;28;20229;-52
2023/12/31 05:49:05;;;;;;;3.93;2.13;;;;;;;4.97;100.00;147438.63;4967399;28;20229;-54
2023/12/31 05:51:32;;;;;;;5.23;1.90;;;;;;;5.09;100.00;147467.16;4963452;28;20238;-52
2023/12/31 05:54:00;;;;;;;3.80;2.27;;;;;;;5.19;100.00;147491.97;4964879;28;20230;-52
2023/12/31 05:56:26;;;;;;;3.67;2.23;;;;;;;5.20;100.00;147494.47;4966685;28;20213;-53
2023/12/31 05:58:53;;;;;;;2.97;1.90;;;;;;;5.35;100.00;147530.44;4961777;28;20230;-52
2023/12/31 06:01:19;;;;;;;3.37;2.53;;;;;;;5.41;100.00;147545.31;4963301;28;20829;-54
2023/12/31 06:03:46;;;;;;;3.97;2.30;;;;;;;5.40;100.00;147541.63;4960724;28;20598;-52
2023/12/31 06:06:13;;;;;;;2.80;1.83;;;;;;;5.46;100.00;147556.50;4962269;28;20230;-55
2023/12/31 06:08:39;;;;;;;3.77;2.00;;;;;;;5.43;100.00;147549.06;4962735;28;20233;-54
2023/12/31 06:11:07;;;;;;;3.13;2.10;;;;;;;5.42;100.00;147546.59;4964654;28;20249;-51
2023/12/31 06:13:34;;;;;;;5.23;2.10;;;;;;;5.50;100.00;147565.19;4965378;28;20585;-54
2023/12/31 06:16:01;;;;;;;4.23;2.63;;;;;;;5.67;100.00;147606.16;4963325;28;20234;-51
2023/12/31 06:18:28;;;;;;;4.10;2.43;;;;;;;5.72;100.00;147618.56;4966070;28;20226;-54
2023/12/31 06:20:54;;;;;;;3.83;2.30;;;;;;;5.81;100.00;147640.94;4964683;28;20672;-52
2023/12/31 06:23:21;;;;;;;6.03;2.70;;;;;;;5.82;100.00;147643.41;4964419;28;20234;-52
2023/12/31 06:25:47;;;;;;;2.50;1.77;;;;;;;5.86;100.00;147652.06;4961479;28;20264;-52
2023/12/31 06:28:15;;;;;;;3.73;2.60;;;;;;;5.78;100.00;147632.22;4959759;28;20226;-54
2023/12/31 06:30:42;;;;;;;3.20;2.07;;;;;;;5.73;100.00;147622.28;4963987;28;20233;-52
2023/12/31 06:33:08;;;;;;;5.53;3.00;;;;;;;5.69;100.00;147612.34;4965636;28;20226;-54
2023/12/31 06:35:35;;;;;;;5.70;2.43;;;;;;;5.61;100.00;147593.75;4963423;28;20233;-51
2023/12/31 06:38:02;;;;;;;4.97;2.40;;;;;;;5.53;100.00;147572.63;4965877;28;20233;-52
2023/12/31 06:40:28;;;;;;;3.93;2.37;;;;;;;5.42;100.00;147546.59;4965094;28;20224;-55
2023/12/31 06:42:55;;;;;;;3.10;2.13;;;;;;;5.28;100.00;147513.09;4963331;28;20246;-53
2023/12/31 06:45:23;;;;;;;6.00;2.60;;;;;;;5.22;100.00;147498.22;4966599;28;20240;-52
2023/12/31 06:47:49;;;;;;;2.43;1.90;;;;;;;5.21;100.00;147496.94;4956456;28;20707;-51
2023/12/31 06:50:16;;;;;;;5.00;2.10;;;;;;;5.17;100.00;147487.00;4962598;28;20257;-52
2023/12/31 06:52:42;;;;;;;4.27;2.50;;;;;;;5.16;100.00;147484.53;4963250;28;20229;-52
2023/12/31 06:55:11;;;;;;;4.23;1.80;;;;;;;5.14;100.00;147480.84;4965027;28;20227;-52
2023/12/31 06:57:38;;;;;;;4.30;2.17;;;;;;;5.19;100.00;147491.97;4963727;28;20307;-54
2023/12/31 07:00:07;;;;;;;4.03;2.10;;;;;;;5.31;100.00;147520.50;4965619;28;20248;-53
2023/12/31 07:02:35;;;;;;;5.43;1.63;;;;;;;5.54;100.00;147575.09;4965696;28;20229;-52
2023/12/31 07:05:02;;;;;;;4.03;1.80;;;;;;;5.76;100.00;147629.72;4962282;28;20233;-51
2023/12/31 07:07:29;;;;;;;2.00;1.40;;;;;;;6.09;99.00;147706.75;4948522;28;20268;-52
2023/12/31 07:09:56;;;;;;;3.40;1.80;;;;;;;6.15;98.60;147722.88;4955761;28;20309;-54
2023/12/31 07:12:22;;;;;;;1.23;0.90;;;;;;;6.73;89.83;147860.72;4960884;28;20725;-55
2023/12/31 07:14:49;;;;;;;1.50;1.00;;;;;;;7.25;84.48;147986.19;4963772;28;20222;-52
2023/12/31 07:17:15;;;;;;;1.47;0.90;;;;;;;8.39;73.05;148259.66;4965412;28;20233;-52
2023/12/31 07:19:43;;;;;;;1.57;0.93;;;;;;;8.96;69.24;148396.53;4960564;28;20226;-54
2023/12/31 07:22:10;;;;;;;2.03;0.80;;;;;;;9.42;66.14;148508.50;4954720;28;20233;-52
2023/12/31 07:24:37;;;;;;;2.30;0.90;;;;;;;9.93;64.85;148630.50;4958021;28;20228;-52
2023/12/31 07:27:05;;;;;;;1.13;0.87;;;;;;;10.09;64.68;148669.06;4965578;28;20706;-52
2023/12/31 07:29:31;;;;;;;1.93;1.20;;;;;;;10.26;62.54;148710.13;4959946;28;20258;-53
2023/12/31 07:31:58;;;;;;;1.10;0.87;;;;;;;10.44;61.28;148752.53;4960983;28;20238;-52
2023/12/31 07:34:25;;;;;;;1.47;1.00;;;;;;;10.39;62.57;148741.34;4963199;28;20893;-53
2023/12/31 07:36:52;;;;;;;1.77;0.73;;;;;;;10.72;60.57;148821.00;4961146;28;20225;-53
2023/12/31 07:39:19;;;;;;;1.63;1.00;;;;;;;10.79;59.48;148837.22;4963565;28;20244;-52
2023/12/31 07:41:46;;;;;;;1.50;1.07;;;;;;;10.65;61.41;148802.34;4959725;28;20233;-53
2023/12/31 07:44:20;;;;;;;1.93;1.00;;;;;;;10.66;61.33;148804.84;4946485;28;20231;-51
2023/12/31 07:46:47;;;;;;;1.53;1.00;;;;;;;10.59;62.16;148788.69;4958039;28;20245;-54
2023/12/31 07:49:13;;;;;;;1.83;1.27;;;;;;;10.61;62.86;148793.59;4965522;28;20324;-52
2023/12/31 07:51:40;;;;;;;1.73;1.23;;;;;;;10.78;61.45;148835.97;4945201;28;20228;-55
2023/12/31 07:54:08;;;;;;;11.47;6.93;;;;;;;10.78;61.97;148834.75;4963041;28;20738;-52
2023/12/31 07:56:34;;;;;;;2.13;1.70;;;;;;;10.74;62.79;148826.00;4959252;28;20256;-54
2023/12/31 07:59:02;;;;;;;73.57;63.40;;;;;;;10.82;61.42;148844.69;4961435;28;20306;-52
2023/12/31 08:01:28;;;;;;;3.10;2.03;;;;;;;10.92;60.90;148868.34;4962570;28;20224;-52
2023/12/31 08:03:55;;;;;;;2.97;1.97;;;;;;;10.87;61.97;148855.88;4960646;28;20597;-52
2023/12/31 08:06:21;;;;;;;3.87;3.53;;;;;;;11.02;61.28;148892.03;4963224;28;20243;-52
2023/12/31 08:08:49;;;;;;;2.17;1.50;;;;;;;11.01;61.40;148890.78;4961518;28;20239;-52
2023/12/31 08:11:18;;;;;;;2.80;2.50;;;;;;;11.17;60.46;148928.16;4958728;28;20251;-53
2023/12/31 08:13:45;;;;;;;2.17;1.30;;;;;;;11.14;61.16;148920.69;4955178;28;20233;-52
2023/12/31 08:16:12;;;;;;;2.83;2.20;;;;;;;11.15;61.21;148923.16;4962109;28;20636;-53
2023/12/31 08:18:39;;;;;;;1.90;1.70;;;;;;;11.11;61.80;148914.47;4959322;28;20231;-52
2023/12/31 08:21:06;;;;;;;3.60;1.70;;;;;;;11.25;60.81;148946.81;4962437;28;20229;-54
2023/12/31 08:23:33;;;;;;;4.93;2.27;;;;;;;11.30;61.07;148959.28;4962856;28;20230;-52
2023/12/31 08:25:59;;;;;;;4.07;1.70;;;;;;;11.22;61.08;148941.84;4961767;28;20242;-52
2023/12/31 08:28:27;;;;;;;2.07;1.60;;;;;;;11.27;62.14;148953.06;4964921;28;20222;-53
2023/12/31 08:30:54;;;;;;;4.50;1.77;;;;;;;11.40;61.20;148982.97;4961724;28;20217;-52
2023/12/31 08:33:20;;;;;;;3.67;1.80;;;;;;;11.39;61.48;148981.72;4957551;28;20223;-52
2023/12/31 08:35:47;;;;;;;2.97;1.50;;;;;;;11.46;61.77;148997.94;4960834;28;20253;-54
2023/12/31 08:38:14;;;;;;;2.90;1.83;;;;;;;11.45;60.76;148996.66;4962512;28;20225;-55
2023/12/31 08:40:40;;;;;;;1.90;1.60;;;;;;;11.45;61.02;148995.44;4959784;28;20559;-53
2023/12/31 08:43:07;;;;;;;2.97;1.70;;;;;;;11.45;61.97;148995.44;4963171;28;20228;-52
2023/12/31 08:45:39;;;;;;;3.13;1.80;;;;;;;11.52;61.45;149014.13;4963202;28;20226;-55
2023/12/31 08:48:07;;;;;;;4.57;2.20;;;;;;;11.36;63.06;148975.50;4959757;28;20318;-54
2023/12/31 08:50:33;;;;;;;4.37;1.90;;;;;;;11.39;62.79;148980.50;4962441;28;20224;-52
2023/12/31 08:53:00;;;;;;;2.80;1.90;;;;;;;11.39;62.38;148980.50;4961647;28;20574;-55
2023/12/31 08:55:26;;;;;;;3.57;2.77;;;;;;;11.52;61.73;149012.91;4964960;28;20227;-52
2023/12/31 08:57:53;;;;;;;4.80;2.00;;;;;;;11.60;61.11;149031.56;4959175;28;20219;-55
2023/12/31 09:00:20;;;;;;;3.67;2.80;;;;;;;11.59;61.82;149030.34;4963537;28;20245;-52
2023/12/31 09:02:48;;;;;;;3.37;2.00;;;;;;;11.72;60.17;149060.22;4962061;28;20228;-54
2023/12/31 09:05:14;;;;;;;5.13;2.00;;;;;;;11.65;61.59;149045.31;4967906;28;20596;-55
2023/12/31 09:07:41;;;;;;;3.27;2.53;;;;;;;11.78;60.85;149076.44;4963826;28;20624;-53
2023/12/31 09:10:08;;;;;;;2.13;1.90;;;;;;;11.82;61.24;149085.16;4966833;28;21069;-53
2023/12/31 09:12:35;;;;;;;2.63;2.00;;;;;;;11.81;61.03;149082.66;4964966;28;20234;-55
2023/12/31 09:15:02;;;;;;;3.17;1.90;;;;;;;11.88;60.26;149098.88;4960067;28;20235;-54
2023/12/31 09:17:29;;;;;;;2.67;1.67;;;;;;;11.80;61.40;149080.16;4966957;28;20241;-53
2023/12/31 09:19:57;;;;;;;3.50;1.60;;;;;;;11.88;61.04;149098.88;4961829;28;20242;-55
2023/12/31 09:22:23;;;;;;;9.30;4.93;;;;;;;11.91;61.03;149107.59;4965031;28;20726;-54
2023/12/31 09:24:51;;;;;;;13.50;9.00;;;;;;;11.84;62.10;149090.13;4962593;28;20223;-53
2023/12/31 09:27:18;;;;;;;2.70;1.90;;;;;;;11.90;60.74;149103.88;4964074;28;20223;-54
2023/12/31 09:29:44;;;;;;;3.20;2.03;;;;;;;11.88;62.31;149098.88;4963622;28;20275;-52
2023/12/31 09:32:11;;;;;;;2.57;2.10;;;;;;;11.98;60.72;149122.53;4965725;28;20236;-52
2023/12/31 09:34:38;;;;;;;2.47;2.20;;;;;;;12.08;59.77;149147.53;4963904;28;20680;-54
2023/12/31 09:37:06;;;;;;;2.73;1.70;;;;;;;12.12;59.75;149157.50;4966826;28;20245;-55
2023/12/31 09:39:32;;;;;;;2.60;1.83;;;;;;;12.13;60.49;149158.78;4964583;28;20236;-53
2023/12/31 09:42:03;;;;;;;3.70;2.23;;;;;;;12.10;59.78;149152.50;4962027;28;20717;-54
2023/12/31 09:44:30;;;;;;;4.63;2.90;;;;;;;12.17;60.15;149168.75;4967195;28;20242;-53
2023/12/31 09:47:05;;;;;;;2.77;2.07;;;;;;;12.20;59.52;149176.19;4948266;28;20692;-53
2023/12/31 09:49:34;;;;;;;3.07;2.00;;;;;;;12.26;58.58;149191.16;4967450;28;20226;-53
2023/12/31 09:52:03;;;;;;;2.70;2.20;;;;;;;12.32;58.80;149204.88;4964869;28;20236;-54
2023/12/31 09:54:31;;;;;;;3.50;2.60;;;;;;;12.34;58.92;149211.09;4966955;28;20244;-54
2023/12/31 09:56:58;;;;;;;3.57;2.10;;;;;;;12.45;57.25;149236.03;4965152;28;20227;-55
2023/12/31 09:59:26;;;;;;;2.33;1.90;;;;;;;12.47;58.08;149241.03;4966087;28;20236;-55
2023/12/31 10:01:54;;;;;;;3.60;1.80;;;;;;;12.44;58.37;149233.53;4963779;28;20251;-54
2023/12/31 10:04:22;;;;;;;2.03;1.70;;;;;;;12.43;58.04;149231.06;4964309;28;20362;-55
2023/12/31 10:06:50;;;;;;;2.90;1.60;;;;;;;12.40;58.33;149226.06;4964735;28;20219;-52
2023/12/31 10:09:19;;;;;;;3.87;1.87;;;;;;;12.37;58.25;149217.34;4965918;28;20228;-55
2023/12/31 10:11:47;;;;;;;7.93;4.57;;;;;;;12.38;57.04;149219.84;4962927;28;20227;-53
2023/12/31 10:14:15;;;;;;;3.43;1.97;;;;;;;12.34;57.45;149211.09;4964159;28;20231;-54
2023/12/31 10:16:43;;;;;;;8.07;5.00;;;;;;;12.41;56.42;149227.31;4962653;28;20594;-52
2023/12/31 10:19:10;;;;;;;2.60;2.00;;;;;;;12.35;58.23;149212.38;4961079;28;20243;-52
2023/12/31 10:21:37;;;;;;;9.93;5.33;;;;;;;12.45;56.40;149237.31;4962219;28;20237;-53
2023/12/31 10:24:04;;;;;;;4.67;3.20;;;;;;;12.50;56.90;149248.50;4968000;28;20239;-54
2023/12/31 10:26:30;;;;;;;3.37;2.00;;;;;;;12.43;57.70;149231.06;4965777;28;20224;-53
2023/12/31 10:28:59;;;;;;;2.33;1.83;;;;;;;12.42;56.84;149229.81;4962795;28;20229;-53
2023/12/31 10:31:25;;;;;;;2.30;1.90;;;;;;;12.38;57.55;149219.84;4966406;28;20232;-53
2023/12/31 10:33:52;;;;;;;3.20;2.00;;;;;;;12.35;57.63;149213.59;4962104;28;20650;-53
2023/12/31 10:36:22;;;;;;;4.13;1.93;;;;;;;12.21;58.42;149178.69;4965031;28;20242;-52
2023/12/31 10:38:50;;;;;;;6.40;3.47;;;;;;;10.12;69.98;148676.53;4956055;28;20315;-52
2023/12/31 10:41:21;;;;;;;11.30;5.30;;;;;;;8.95;86.43;148395.28;4958540;28;20239;-55
2023/12/31 10:43:48;;;;;;;7.27;4.50;;;;;;;8.56;93.43;148300.72;4961888;28;20235;-55
2023/12/31 10:46:18;;;;;;;7.50;3.67;;;;;;;8.11;99.92;148193.78;4966338;28;20278;-54
2023/12/31 10:48:48;;;;;;;5.80;3.90;;;;;;;8.05;100.00;148177.59;4962240;28;20218;-54
2023/12/31 10:51:23;;;;;;;5.90;3.93;;;;;;;7.66;100.00;148085.63;4964170;28;20333;-54
2023/12/31 10:53:52;;;;;;;5.23;3.03;;;;;;;7.62;100.00;148075.69;4961470;28;20236;-53
2023/12/31 10:56:21;;;;;;;4.67;3.23;;;;;;;7.71;100.00;148095.56;4965217;28;20309;-52
2023/12/31 10:58:48;;;;;;;5.00;3.27;;;;;;;7.77;100.00;148111.72;4962491;28;20234;-53
2023/12/31 11:01:17;;;;;;;3.20;2.10;;;;;;;7.67;100.00;148088.13;4966194;28;20230;-52
2023/12/31 11:03:44;;;;;;;3.93;2.83;;;;;;;7.64;100.00;148079.38;4955240;28;20222;-54
2023/12/31 11:06:11;;;;;;;5.00;2.50;;;;;;;7.63;100.00;148078.16;4956373;28;20358;-55
2023/12/31 11:08:39;;;;;;;2.43;2.03;;;;;;;7.66;100.00;148085.63;4961286;28;20229;-52
2023/12/31 11:11:06;;;;;;;9.73;4.53;;;;;;;7.56;100.00;148059.50;4954062;28;20237;-54
2023/12/31 11:13:37;;;;;;;2.43;2.10;;;;;;;7.66;100.00;148085.63;4964827;28;20748;-53
2023/12/31 11:16:06;;;;;;;5.43;3.13;;;;;;;7.76;100.00;148108.00;4963423;28;20238;-52
2023/12/31 11:19:14;;;;;;;3.23;1.90;;;;;;;7.81;100.00;148121.66;4963473;28;20237;-54
2023/12/31 11:21:56;;;;;;;1.60;1.40;;;;;;;7.77;100.00;148111.72;4955597;28;20218;-52
2023/12/31 11:24:25;;;;;;;1.40;1.00;;;;;;;7.79;100.00;148115.47;4964939;28;20977;-52
2023/12/31 11:27:04;;;;;;;3.97;2.30;;;;;;;7.78;100.00;148114.19;4961144;28;20686;-52
2023/12/31 11:29:30;;;;;;;0.80;0.60;;;;;;;7.82;98.18;148122.94;4964697;28;20740;-52